sensor_id;sensor_type;location;lat;lon;timestamp;pressure;altitude;pressure_sealevel;temperature;humidity
62634;BME280;48704;50.534;6.442;2023-04-01T00:01:17;93521.25;;;5.44;100.00
62634;BME280;48704;50.534;6.442;2023-04-01T00:03:43;93515.47;;;5.42;100.00
62634;BME280;48704;50.534;6.442;2023-04-01T00:06:12;93523.75;;;5.42;100.00
62634;BME280;48704;50.534;6.442;2023-04-01T00:08:38;93509.94;;;5.42;100.00
62634;BME280;48704;50.534;6.442;2023-04-01T00:11:03;93512.97;;;5.44;100.00
62634;BME280;48704;50.534;6.442;2023-04-01T00:13:28;93514.97;;;5.43;100.00
62634;BME280;48704;50.534;6.442;2023-04-01T00:15:55;93510.44;;;5.40;100.00
62634;BME280;48704;50.534;6.442;2023-04-01T00:18:21;93500.41;;;5.43;100.00
62634;BME280;48704;50.534;6.442;2023-04-01T00:20:47;93512.72;;;5.42;100.00
62634;BME280;48704;50.534;6.442;2023-04-01T00:23:13;93509.16;;;5.35;100.00
62634;BME280;48704;50.534;6.442;2023-04-01T00:25:39;93503.91;;;5.37;100.00
62634;BME280;48704;50.534;6.442;2023-04-01T00:28:04;93523.22;;;5.37;100.00
62634;BME280;48704;50.534;6.442;2023-04-01T00:30:30;93512.44;;;5.40;100.00
62634;BME280;48704;50.534;6.442;2023-04-01T00:32:55;93491.34;;;5.36;100.00
62634;BME280;48704;50.534;6.442;2023-04-01T00:35:20;93510.41;;;5.34;100.00
62634;BME280;48704;50.534;6.442;2023-04-01T00:37:46;93500.88;;;5.35;100.00
62634;BME280;48704;50.534;6.442;2023-04-01T00:40:27;93507.91;;;5.36;100.00
62634;BME280;48704;50.534;6.442;2023-04-01T00:42:53;93509.41;;;5.37;100.00
62634;BME280;48704;50.534;6.442;2023-04-01T00:45:37;93487.31;;;5.37;100.00
62634;BME280;48704;50.534;6.442;2023-04-01T00:48:13;93509.66;;;5.34;100.00
62634;BME280;48704;50.534;6.442;2023-04-01T00:50:42;93499.34;;;5.34;100.00
62634;BME280;48704;50.534;6.442;2023-04-01T00:53:09;93498.34;;;5.32;100.00
62634;BME280;48704;50.534;6.442;2023-04-01T00:55:37;93502.63;;;5.33;100.00
62634;BME280;48704;50.534;6.442;2023-04-01T00:58:07;93501.84;;;5.32;100.00
62634;BME280;48704;50.534;6.442;2023-04-01T01:00:34;93509.88;;;5.30;100.00
62634;BME280;48704;50.534;6.442;2023-04-01T01:03:00;93497.84;;;5.33;100.00
62634;BME280;48704;50.534;6.442;2023-04-01T01:06:10;93515.41;;;5.30;100.00
62634;BME280;48704;50.534;6.442;2023-04-01T01:09:06;93490.56;;;5.30;100.00
62634;BME280;48704;50.534;6.442;2023-04-01T01:16:59;93488.03;;;5.27;100.00
62634;BME280;48704;50.534;6.442;2023-04-01T01:19:52;93500.56;;;5.28;100.00
62634;BME280;48704;50.534;6.442;2023-04-01T01:25:18;93496.78;;;5.25;100.00
62634;BME280;48704;50.534;6.442;2023-04-01T01:27:58;93485.50;;;5.23;100.00
62634;BME280;48704;50.534;6.442;2023-04-01T01:30:51;93474.19;;;5.21;100.00
62634;BME280;48704;50.534;6.442;2023-04-01T01:36:02;93474.19;;;5.21;100.00
62634;BME280;48704;50.534;6.442;2023-04-01T01:38:32;93481.47;;;5.24;100.00
62634;BME280;48704;50.534;6.442;2023-04-01T01:40:59;93484.50;;;5.26;100.00
62634;BME280;48704;50.534;6.442;2023-04-01T01:43:30;93478.72;;;5.24;100.00
62634;BME280;48704;50.534;6.442;2023-04-01T01:46:00;93469.19;;;5.25;100.00
62634;BME280;48704;50.534;6.442;2023-04-01T01:48:27;93480.50;;;5.27;100.00
62634;BME280;48704;50.534;6.442;2023-04-01T01:50:55;93484.50;;;5.26;100.00
62634;BME280;48704;50.534;6.442;2023-04-01T01:53:20;93476.44;;;5.23;100.00
62634;BME280;48704;50.534;6.442;2023-04-01T01:55:46;93473.19;;;5.24;100.00
62634;BME280;48704;50.534;6.442;2023-04-01T01:58:32;93482.47;;;5.21;100.00
62634;BME280;48704;50.534;6.442;2023-04-01T02:01:03;93473.94;;;5.19;100.00
62634;BME280;48704;50.534;6.442;2023-04-01T02:03:33;93472.66;;;5.15;100.00
62634;BME280;48704;50.534;6.442;2023-04-01T02:06:01;93475.69;;;5.22;100.00
62634;BME280;48704;50.534;6.442;2023-04-01T02:08:34;93476.94;;;5.21;100.00
62634;BME280;48704;50.534;6.442;2023-04-01T02:11:03;93494.75;;;5.20;100.00
62634;BME280;48704;50.534;6.442;2023-04-01T02:13:43;93479.22;;;5.17;100.00
62634;BME280;48704;50.534;6.442;2023-04-01T02:16:14;93491.50;;;5.16;100.00
62634;BME280;48704;50.534;6.442;2023-04-01T02:18:43;93473.16;;;5.13;100.00
62634;BME280;48704;50.534;6.442;2023-04-01T02:21:11;93477.16;;;5.12;100.00
62634;BME280;48704;50.534;6.442;2023-04-01T02:23:37;93472.88;;;5.11;100.00
62634;BME280;48704;50.534;6.442;2023-04-01T02:26:06;93488.22;;;5.12;100.00
62634;BME280;48704;50.534;6.442;2023-04-01T02:28:33;93480.19;;;5.14;100.00
62634;BME280;48704;50.534;6.442;2023-04-01T02:31:00;93478.69;;;5.13;100.00
62634;BME280;48704;50.534;6.442;2023-04-01T02:33:28;93482.94;;;5.14;100.00
62634;BME280;48704;50.534;6.442;2023-04-01T02:35:53;93478.44;;;5.17;100.00
62634;BME280;48704;50.534;6.442;2023-04-01T02:38:19;93478.19;;;5.15;100.00
62634;BME280;48704;50.534;6.442;2023-04-01T02:40:49;93488.22;;;5.12;100.00
62634;BME280;48704;50.534;6.442;2023-04-01T02:43:15;93485.94;;;5.11;100.00
62634;BME280;48704;50.534;6.442;2023-04-01T02:45:41;93490.69;;;5.10;100.00
62634;BME280;48704;50.534;6.442;2023-04-01T02:48:07;93489.69;;;5.08;100.00
62634;BME280;48704;50.534;6.442;2023-04-01T02:50:32;93503.53;;;5.13;100.00
62634;BME280;48704;50.534;6.442;2023-04-01T02:52:58;93501.00;;;5.10;100.00
62634;BME280;48704;50.534;6.442;2023-04-01T02:55:23;93483.91;;;5.06;100.00
62634;BME280;48704;50.534;6.442;2023-04-01T02:57:48;93483.91;;;5.06;100.00
62634;BME280;48704;50.534;6.442;2023-04-01T03:00:14;93482.16;;;5.08;100.00
62634;BME280;48704;50.534;6.442;2023-04-01T03:02:40;93474.13;;;5.10;100.00
62634;BME280;48704;50.534;6.442;2023-04-01T03:05:05;93473.91;;;5.14;100.00
62634;BME280;48704;50.534;6.442;2023-04-01T03:07:31;93484.44;;;5.10;100.00
62634;BME280;48704;50.534;6.442;2023-04-01T03:09:56;93490.69;;;5.10;100.00
62634;BME280;48704;50.534;6.442;2023-04-01T03:12:21;93492.22;;;5.11;100.00
62634;BME280;48704;50.534;6.442;2023-04-01T03:14:47;93491.22;;;5.14;100.00
62634;BME280;48704;50.534;6.442;2023-04-01T03:17:12;93481.69;;;5.15;100.00
62634;BME280;48704;50.534;6.442;2023-04-01T03:19:38;93487.22;;;5.15;100.00
62634;BME280;48704;50.534;6.442;2023-04-01T03:22:03;93488.22;;;5.12;100.00
62634;BME280;48704;50.534;6.442;2023-04-01T03:24:28;93489.22;;;5.15;100.00
62634;BME280;48704;50.534;6.442;2023-04-01T03:26:53;93493.50;;;5.16;100.00
62634;BME280;48704;50.534;6.442;2023-04-01T03:29:19;93474.66;;;5.14;100.00
62634;BME280;48704;50.534;6.442;2023-04-01T03:31:44;93490.50;;;5.19;100.00
62634;BME280;48704;50.534;6.442;2023-04-01T03:34:09;93490.75;;;5.16;100.00
62634;BME280;48704;50.534;6.442;2023-04-01T03:36:35;93490.22;;;5.12;100.00
62634;BME280;48704;50.534;6.442;2023-04-01T03:39:00;93489.72;;;5.13;100.00
62634;BME280;48704;50.534;6.442;2023-04-01T03:41:26;93496.22;;;5.10;100.00
62634;BME280;48704;50.534;6.442;2023-04-01T03:43:53;93492.47;;;5.13;100.00
62634;BME280;48704;50.534;6.442;2023-04-01T03:46:19;93494.47;;;5.13;100.00
62634;BME280;48704;50.534;6.442;2023-04-01T03:48:45;93507.78;;;5.14;100.00
62634;BME280;48704;50.534;6.442;2023-04-01T03:51:10;93503.53;;;5.13;100.00
62634;BME280;48704;50.534;6.442;2023-04-01T03:53:36;93497.50;;;5.15;100.00
62634;BME280;48704;50.534;6.442;2023-04-01T03:56:08;93502.81;;;5.18;100.00
62634;BME280;48704;50.534;6.442;2023-04-01T03:58:34;93497.28;;;5.18;100.00
62634;BME280;48704;50.534;6.442;2023-04-01T04:01:00;93491.75;;;5.18;100.00
62634;BME280;48704;50.534;6.442;2023-04-01T04:03:25;93505.56;;;5.18;100.00
62634;BME280;48704;50.534;6.442;2023-04-01T04:05:51;93506.56;;;5.21;100.00
62634;BME280;48704;50.534;6.442;2023-04-01T04:08:17;93493.50;;;5.21;100.00
62634;BME280;48704;50.534;6.442;2023-04-01T04:10:42;93504.56;;;5.21;100.00
62634;BME280;48704;50.534;6.442;2023-04-01T04:13:08;93516.63;;;5.24;100.00
62634;BME280;48704;50.534;6.442;2023-04-01T04:15:34;93530.69;;;5.26;100.00
62634;BME280;48704;50.534;6.442;2023-04-01T04:17:59;93511.09;;;5.24;100.00
62634;BME280;48704;50.534;6.442;2023-04-01T04:20:24;93515.84;;;5.23;100.00
62634;BME280;48704;50.534;6.442;2023-04-01T04:22:49;93499.81;;;5.27;100.00
62634;BME280;48704;50.534;6.442;2023-04-01T04:25:15;93509.59;;;5.23;100.00
62634;BME280;48704;50.534;6.442;2023-04-01T04:27:40;93509.09;;;5.24;100.00
62634;BME280;48704;50.534;6.442;2023-04-01T04:30:07;93506.81;;;5.23;100.00
62634;BME280;48704;50.534;6.442;2023-04-01T04:32:32;93509.34;;;5.26;100.00
62634;BME280;48704;50.534;6.442;2023-04-01T04:34:58;93519.16;;;5.27;100.00
62634;BME280;48704;50.534;6.442;2023-04-01T04:37:23;93509.34;;;5.26;100.00
62634;BME280;48704;50.534;6.442;2023-04-01T04:39:50;93508.84;;;5.28;100.00
62634;BME280;48704;50.534;6.442;2023-04-01T04:42:16;93513.88;;;5.29;100.00
62634;BME280;48704;50.534;6.442;2023-04-01T04:44:41;93512.38;;;5.28;100.00
62634;BME280;48704;50.534;6.442;2023-04-01T04:47:06;93515.63;;;5.27;100.00
62634;BME280;48704;50.534;6.442;2023-04-01T04:49:32;93508.38;;;5.29;100.00
62634;BME280;48704;50.534;6.442;2023-04-01T04:51:57;93518.44;;;5.32;100.00
62634;BME280;48704;50.534;6.442;2023-04-01T04:54:22;93524.94;;;5.29;100.00
62634;BME280;48704;50.534;6.442;2023-04-01T04:56:48;93530.97;;;5.33;100.00
62634;BME280;48704;50.534;6.442;2023-04-01T04:59:13;93543.06;;;5.36;100.00
62634;BME280;48704;50.534;6.442;2023-04-01T05:01:38;93541.50;;;5.29;100.00
62634;BME280;48704;50.534;6.442;2023-04-01T05:04:04;93534.75;;;5.36;100.00
62634;BME280;48704;50.534;6.442;2023-04-01T05:06:29;93546.06;;;5.38;100.00
62634;BME280;48704;50.534;6.442;2023-04-01T05:08:55;93551.13;;;5.40;100.00
62634;BME280;48704;50.534;6.442;2023-04-01T05:11:21;93549.59;;;5.38;100.00
62634;BME280;48704;50.534;6.442;2023-04-01T05:13:47;93556.41;;;5.43;100.00
62634;BME280;48704;50.534;6.442;2023-04-01T05:16:18;93549.59;;;5.38;100.00
62634;BME280;48704;50.534;6.442;2023-04-01T05:18:44;93550.66;;;5.47;100.00
62634;BME280;48704;50.534;6.442;2023-04-01T05:21:11;93552.13;;;5.42;100.00
62634;BME280;48704;50.534;6.442;2023-04-01T05:23:37;93553.16;;;5.45;100.00
62634;BME280;48704;50.534;6.442;2023-04-01T05:26:04;93560.44;;;5.48;100.00
62634;BME280;48704;50.534;6.442;2023-04-01T05:28:29;93567.22;;;5.47;100.00
62634;BME280;48704;50.534;6.442;2023-04-01T05:30:58;93559.44;;;5.45;100.00
62634;BME280;48704;50.534;6.442;2023-04-01T05:33:24;93553.69;;;5.49;100.00
62634;BME280;48704;50.534;6.442;2023-04-01T05:35:49;93564.72;;;5.49;100.00
62634;BME280;48704;50.534;6.442;2023-04-01T05:38:15;93561.47;;;5.50;100.00
62634;BME280;48704;50.534;6.442;2023-04-01T05:40:40;93569.25;;;5.52;100.00
62634;BME280;48704;50.534;6.442;2023-04-01T05:43:05;93570.25;;;5.49;100.00
62634;BME280;48704;50.534;6.442;2023-04-01T05:45:31;93574.78;;;5.52;100.00
62634;BME280;48704;50.534;6.442;2023-04-01T05:47:56;93572.56;;;5.56;100.00
62634;BME280;48704;50.534;6.442;2023-04-01T05:50:22;93576.06;;;5.56;100.00
62634;BME280;48704;50.534;6.442;2023-04-01T05:52:47;93571.31;;;5.57;100.00
62634;BME280;48704;50.534;6.442;2023-04-01T05:55:12;93575.31;;;5.56;100.00
62634;BME280;48704;50.534;6.442;2023-04-01T05:57:38;93581.06;;;5.58;100.00
62634;BME280;48704;50.534;6.442;2023-04-01T06:00:04;93567.03;;;5.61;100.00
62634;BME280;48704;50.534;6.442;2023-04-01T06:02:29;93582.84;;;5.61;100.00
62634;BME280;48704;50.534;6.442;2023-04-01T06:05:21;93581.88;;;5.64;100.00
62634;BME280;48704;50.534;6.442;2023-04-01T06:07:47;93575.59;;;5.63;100.00
62634;BME280;48704;50.534;6.442;2023-04-01T06:10:32;93574.06;;;5.62;100.00
62634;BME280;48704;50.534;6.442;2023-04-01T06:13:17;93584.38;;;5.62;100.00
62634;BME280;48704;50.534;6.442;2023-04-01T06:15:55;93587.69;;;5.71;100.00
62634;BME280;48704;50.534;6.442;2023-04-01T06:18:42;93594.72;;;5.72;100.00
62634;BME280;48704;50.534;6.442;2023-04-01T06:24:15;93614.03;;;5.67;100.00
62634;BME280;48704;50.534;6.442;2023-04-01T06:45:58;93606.78;;;5.69;100.00
62634;BME280;48704;50.534;6.442;2023-04-01T06:49:04;93626.16;;;5.75;100.00
62634;BME280;48704;50.534;6.442;2023-04-01T06:54:12;93640.75;;;5.81;100.00
62634;BME280;48704;50.534;6.442;2023-04-01T06:56:42;93632.97;;;5.80;100.00
62634;BME280;48704;50.534;6.442;2023-04-01T06:59:19;93625.88;;;5.73;100.00
62634;BME280;48704;50.534;6.442;2023-04-01T07:01:51;93631.69;;;5.75;100.00
62634;BME280;48704;50.534;6.442;2023-04-01T07:06:58;93636.72;;;5.77;100.00
62634;BME280;48704;50.534;6.442;2023-04-01T07:09:31;93635.22;;;5.81;100.00
62634;BME280;48704;50.534;6.442;2023-04-01T07:12:01;93642.53;;;5.84;100.00
62634;BME280;48704;50.534;6.442;2023-04-01T07:14:36;93637.00;;;5.84;100.00
62634;BME280;48704;50.534;6.442;2023-04-01T07:19:36;93641.63;;;5.93;100.00
62634;BME280;48704;50.534;6.442;2023-04-01T07:22:14;93640.84;;;5.92;100.00
62634;BME280;48704;50.534;6.442;2023-04-01T07:24:45;93645.06;;;5.88;100.00
62634;BME280;48704;50.534;6.442;2023-04-01T07:27:13;93651.09;;;5.86;100.00
62634;BME280;48704;50.534;6.442;2023-04-01T07:29:39;93662.97;;;5.92;100.00
62634;BME280;48704;50.534;6.442;2023-04-01T07:35:21;93668.66;;;5.83;100.00
62634;BME280;48704;50.534;6.442;2023-04-01T07:38:04;93668.72;;;5.89;100.00
62634;BME280;48704;50.534;6.442;2023-04-01T07:40:47;93665.47;;;5.90;100.00
62634;BME280;48704;50.534;6.442;2023-04-01T07:51:23;93679.38;;;6.07;100.00
62634;BME280;48704;50.534;6.442;2023-04-01T07:54:01;93675.13;;;6.12;100.00
62634;BME280;48704;50.534;6.442;2023-04-01T08:05:57;93689.22;;;6.14;100.00
62634;BME280;48704;50.534;6.442;2023-04-01T08:14:24;93707.81;;;6.13;100.00
62634;BME280;48704;50.534;6.442;2023-04-01T08:17:07;93703.31;;;6.16;100.00
62634;BME280;48704;50.534;6.442;2023-04-01T08:22:45;93704.88;;;6.28;100.00
62634;BME280;48704;50.534;6.442;2023-04-01T08:25:19;93721.47;;;6.28;100.00
62634;BME280;48704;50.534;6.442;2023-04-01T08:28:13;93716.72;;;6.28;100.00
62634;BME280;48704;50.534;6.442;2023-04-01T08:30:42;93716.66;;;6.23;100.00
62634;BME280;48704;50.534;6.442;2023-04-01T08:33:42;93732.53;;;6.28;100.00
62634;BME280;48704;50.534;6.442;2023-04-01T08:36:37;93738.78;;;6.23;100.00
62634;BME280;48704;50.534;6.442;2023-04-01T08:39:07;93739.28;;;6.21;100.00
62634;BME280;48704;50.534;6.442;2023-04-01T08:47:33;93723.03;;;6.40;100.00
62634;BME280;48704;50.534;6.442;2023-04-01T08:53:40;93742.91;;;6.44;100.00
62634;BME280;48704;50.534;6.442;2023-04-01T08:56:16;93754.25;;;6.46;100.00
62634;BME280;48704;50.534;6.442;2023-04-01T09:01:52;93739.16;;;6.47;100.00
62634;BME280;48704;50.534;6.442;2023-04-01T09:23:23;93774.94;;;6.56;100.00
62634;BME280;48704;50.534;6.442;2023-04-01T09:26:21;93760.91;;;6.65;100.00
62634;BME280;48704;50.534;6.442;2023-04-01T09:37:35;93776.00;;;6.64;100.00
62634;BME280;48704;50.534;6.442;2023-04-01T09:40:16;93776.72;;;6.59;100.00
62634;BME280;48704;50.534;6.442;2023-04-01T09:46:08;93786.56;;;6.71;100.00
62634;BME280;48704;50.534;6.442;2023-04-01T09:51:57;93798.41;;;6.78;100.00
62634;BME280;48704;50.534;6.442;2023-04-01T09:57:27;93810.31;;;6.89;100.00
62634;BME280;48704;50.534;6.442;2023-04-01T10:02:54;93799.25;;;6.95;100.00
62634;BME280;48704;50.534;6.442;2023-04-01T10:36:01;93826.50;;;7.13;100.00
62634;BME280;48704;50.534;6.442;2023-04-01T10:38:47;93834.28;;;7.03;100.00
62634;BME280;48704;50.534;6.442;2023-04-01T10:49:44;93840.41;;;7.24;100.00
62634;BME280;48704;50.534;6.442;2023-04-01T10:55:02;93839.56;;;7.07;100.00
62634;BME280;48704;50.534;6.442;2023-04-01T11:13:49;93856.69;;;7.05;100.00
62634;BME280;48704;50.534;6.442;2023-04-01T11:25:36;93861.38;;;7.36;100.00
62634;BME280;48704;50.534;6.442;2023-04-01T11:39:47;93864.41;;;7.38;100.00
62634;BME280;48704;50.534;6.442;2023-04-01T11:42:46;93883.09;;;7.66;100.00
62634;BME280;48704;50.534;6.442;2023-04-01T11:48:32;93889.19;;;7.81;100.00
62634;BME280;48704;50.534;6.442;2023-04-01T12:01:48;93900.22;;;7.59;100.00
62634;BME280;48704;50.534;6.442;2023-04-01T12:07:15;93906.72;;;7.45;100.00
62634;BME280;48704;50.534;6.442;2023-04-01T12:10:12;93925.16;;;7.59;100.00
62634;BME280;48704;50.534;6.442;2023-04-01T12:13:00;93908.72;;;7.38;100.00
62634;BME280;48704;50.534;6.442;2023-04-01T12:15:36;93908.75;;;7.50;100.00
62634;BME280;48704;50.534;6.442;2023-04-01T12:20:54;93914.03;;;7.48;100.00
62634;BME280;48704;50.534;6.442;2023-04-01T12:26:21;93947.09;;;7.57;100.00
62634;BME280;48704;50.534;6.442;2023-04-01T12:32:00;93917.81;;;7.50;100.00
62634;BME280;48704;50.534;6.442;2023-04-01T12:38:14;93931.56;;;7.22;100.00
62634;BME280;48704;50.534;6.442;2023-04-01T12:46:51;93936.38;;;8.03;100.00
62634;BME280;48704;50.534;6.442;2023-04-01T12:52:20;93935.00;;;7.60;100.00
62634;BME280;48704;50.534;6.442;2023-04-01T13:09:11;93953.56;;;7.43;100.00
62634;BME280;48704;50.534;6.442;2023-04-01T13:19:59;93962.91;;;7.45;100.00
62634;BME280;48704;50.534;6.442;2023-04-01T13:28:20;93975.22;;;7.38;100.00
62634;BME280;48704;50.534;6.442;2023-04-01T13:33:43;93970.72;;;7.47;100.00
62634;BME280;48704;50.534;6.442;2023-04-01T13:36:26;93985.59;;;7.49;100.00
62634;BME280;48704;50.534;6.442;2023-04-01T13:39:02;93983.97;;;7.85;100.00
62634;BME280;48704;50.534;6.442;2023-04-01T13:42:00;93982.63;;;8.40;100.00
62634;BME280;48704;50.534;6.442;2023-04-01T13:44:46;93994.41;;;8.07;100.00
62634;BME280;48704;50.534;6.442;2023-04-01T13:52:55;93987.84;;;7.40;100.00
62634;BME280;48704;50.534;6.442;2023-04-01T14:01:13;93999.13;;;6.93;100.00
62634;BME280;48704;50.534;6.442;2023-04-01T14:04:18;93999.75;;;7.14;100.00
62634;BME280;48704;50.534;6.442;2023-04-01T14:23:59;94012.28;;;7.04;100.00
62634;BME280;48704;50.534;6.442;2023-04-01T14:27:04;94016.69;;;7.22;100.00
62634;BME280;48704;50.534;6.442;2023-04-01T14:35:38;94027.38;;;7.40;100.00
62634;BME280;48704;50.534;6.442;2023-04-01T14:38:25;94050.56;;;7.43;100.00
62634;BME280;48704;50.534;6.442;2023-04-01T14:40:56;94028.59;;;7.33;100.00
62634;BME280;48704;50.534;6.442;2023-04-01T14:43:47;94023.59;;;7.37;100.00
62634;BME280;48704;50.534;6.442;2023-04-01T14:50:09;94035.13;;;7.30;100.00
62634;BME280;48704;50.534;6.442;2023-04-01T14:52:42;94034.66;;;7.37;100.00
62634;BME280;48704;50.534;6.442;2023-04-01T14:55:28;94030.56;;;7.27;100.00
62634;BME280;48704;50.534;6.442;2023-04-01T14:58:09;94040.00;;;7.04;100.00
62634;BME280;48704;50.534;6.442;2023-04-01T15:03:33;94048.19;;;7.24;100.00
62634;BME280;48704;50.534;6.442;2023-04-01T15:06:30;94048.19;;;7.67;100.00
62634;BME280;48704;50.534;6.442;2023-04-01T15:09:37;94047.72;;;7.74;100.00
62634;BME280;48704;50.534;6.442;2023-04-01T15:12:40;94045.00;;;7.43;100.00
62634;BME280;48704;50.534;6.442;2023-04-01T15:30:19;94061.66;;;7.11;100.00
62634;BME280;48704;50.534;6.442;2023-04-01T15:33:23;94073.13;;;6.93;100.00
62634;BME280;48704;50.534;6.442;2023-04-01T15:39:14;94074.22;;;7.01;100.00
62634;BME280;48704;50.534;6.442;2023-04-01T16:07:09;94106.03;;;6.59;100.00
62634;BME280;48704;50.534;6.442;2023-04-01T16:10:19;94108.09;;;6.64;100.00
62634;BME280;48704;50.534;6.442;2023-04-01T16:13:17;94105.34;;;6.64;100.00
62634;BME280;48704;50.534;6.442;2023-04-01T16:21:24;94122.78;;;6.50;100.00
62634;BME280;48704;50.534;6.442;2023-04-01T16:23:58;94131.50;;;6.43;100.00
62634;BME280;48704;50.534;6.442;2023-04-01T16:29:49;94127.72;;;6.41;100.00
62634;BME280;48704;50.534;6.442;2023-04-01T16:32:28;94126.41;;;6.36;100.00
62634;BME280;48704;50.534;6.442;2023-04-01T16:35:03;94136.91;;;6.32;100.00
62634;BME280;48704;50.534;6.442;2023-04-01T16:37:35;94137.91;;;6.29;100.00
62634;BME280;48704;50.534;6.442;2023-04-01T16:43:59;94153.81;;;6.14;100.00
62634;BME280;48704;50.534;6.442;2023-04-01T16:46:28;94158.84;;;6.15;100.00
62634;BME280;48704;50.534;6.442;2023-04-01T16:51:46;94163.13;;;6.16;100.00
62634;BME280;48704;50.534;6.442;2023-04-01T16:54:42;94163.63;;;6.15;100.00
62634;BME280;48704;50.534;6.442;2023-04-01T17:00:19;94174.25;;;6.01;100.00
62634;BME280;48704;50.534;6.442;2023-04-01T17:08:53;94188.75;;;5.96;100.00
62634;BME280;48704;50.534;6.442;2023-04-01T17:11:27;94184.47;;;5.95;100.00
62634;BME280;48704;50.534;6.442;2023-04-01T17:14:07;94186.00;;;5.96;100.00
62634;BME280;48704;50.534;6.442;2023-04-01T17:25:13;94205.56;;;5.93;100.00
62634;BME280;48704;50.534;6.442;2023-04-01T17:27:48;94207.28;;;5.90;100.00
62634;BME280;48704;50.534;6.442;2023-04-01T17:30:32;94207.28;;;5.90;100.00
62634;BME280;48704;50.534;6.442;2023-04-01T17:39:46;94218.72;;;5.83;100.00
62634;BME280;48704;50.534;6.442;2023-04-01T17:42:43;94219.28;;;5.87;100.00
62634;BME280;48704;50.534;6.442;2023-04-01T17:48:59;94230.34;;;5.87;100.00
62634;BME280;48704;50.534;6.442;2023-04-01T17:51:40;94239.31;;;5.82;100.00
62634;BME280;48704;50.534;6.442;2023-04-01T17:54:27;94238.06;;;5.83;100.00
62634;BME280;48704;50.534;6.442;2023-04-01T17:57:30;94241.03;;;5.80;100.00
62634;BME280;48704;50.534;6.442;2023-04-01T18:00:07;94249.22;;;5.74;100.00
62634;BME280;48704;50.534;6.442;2023-04-01T18:05:34;94253.59;;;5.66;100.00
62634;BME280;48704;50.534;6.442;2023-04-01T18:16:37;94264.09;;;5.62;100.00
62634;BME280;48704;50.534;6.442;2023-04-01T18:25:32;94269.03;;;5.58;100.00
62634;BME280;48704;50.534;6.442;2023-04-01T18:28:42;94275.16;;;5.62;100.00
62634;BME280;48704;50.534;6.442;2023-04-01T18:31:36;94282.59;;;5.56;100.00
62634;BME280;48704;50.534;6.442;2023-04-01T18:37:17;94293.38;;;5.54;100.00
62634;BME280;48704;50.534;6.442;2023-04-01T18:39:51;94278.31;;;5.55;100.00
62634;BME280;48704;50.534;6.442;2023-04-01T18:45:36;94286.03;;;5.51;100.00
62634;BME280;48704;50.534;6.442;2023-04-01T18:54:43;94306.69;;;5.41;100.00
62634;BME280;48704;50.534;6.442;2023-04-01T19:00:27;94310.78;;;5.30;100.00
62634;BME280;48704;50.534;6.442;2023-04-01T19:03:21;94306.19;;;5.27;100.00
62634;BME280;48704;50.534;6.442;2023-04-01T19:05:52;94315.13;;;5.22;100.00
62634;BME280;48704;50.534;6.442;2023-04-01T19:08:41;94316.66;;;5.23;100.00
62634;BME280;48704;50.534;6.442;2023-04-01T19:11:23;94331.69;;;5.22;100.00
62634;BME280;48704;50.534;6.442;2023-04-01T19:25:58;94340.09;;;5.13;100.00
62634;BME280;48704;50.534;6.442;2023-04-01T19:38:37;94338.56;;;5.12;100.00
62634;BME280;48704;50.534;6.442;2023-04-01T19:43:46;94341.78;;;5.11;100.00
62634;BME280;48704;50.534;6.442;2023-04-01T19:46:36;94334.56;;;5.13;100.00
62634;BME280;48704;50.534;6.442;2023-04-01T19:49:11;94344.84;;;5.13;100.00
62634;BME280;48704;50.534;6.442;2023-04-01T19:52:13;94347.31;;;5.11;100.00
62634;BME280;48704;50.534;6.442;2023-04-01T20:00:05;94356.75;;;5.19;100.00
62634;BME280;48704;50.534;6.442;2023-04-01T20:05:34;94357.00;;;5.06;100.00
62634;BME280;48704;50.534;6.442;2023-04-01T20:08:22;94363.88;;;5.11;100.00
62634;BME280;48704;50.534;6.442;2023-04-01T20:11:01;94366.53;;;5.05;100.00
62634;BME280;48704;50.534;6.442;2023-04-01T20:14:01;94372.63;;;5.09;100.00
62634;BME280;48704;50.534;6.442;2023-04-01T20:19:37;94380.91;;;5.09;100.00
62634;BME280;48704;50.534;6.442;2023-04-01T20:22:10;94387.38;;;5.06;100.00
62634;BME280;48704;50.534;6.442;2023-04-01T20:24:44;94385.19;;;5.10;100.00
62634;BME280;48704;50.534;6.442;2023-04-01T20:41:10;94405.59;;;5.13;100.00
62634;BME280;48704;50.534;6.442;2023-04-01T20:49:33;94414.56;;;5.22;100.00
62634;BME280;48704;50.534;6.442;2023-04-01T20:57:38;94419.44;;;5.27;100.00
62634;BME280;48704;50.534;6.442;2023-04-01T21:10:47;94418.78;;;5.32;100.00
62634;BME280;48704;50.534;6.442;2023-04-01T21:24:29;94437.81;;;5.30;100.00
62634;BME280;48704;50.534;6.442;2023-04-01T21:32:40;94439.63;;;5.19;100.00
62634;BME280;48704;50.534;6.442;2023-04-01T21:35:44;94439.69;;;5.24;100.00
62634;BME280;48704;50.534;6.442;2023-04-01T21:38:24;94440.06;;;5.17;100.00
62634;BME280;48704;50.534;6.442;2023-04-01T21:47:01;94447.69;;;5.22;100.00
62634;BME280;48704;50.534;6.442;2023-04-01T21:49:46;94453.22;;;5.22;100.00
62634;BME280;48704;50.534;6.442;2023-04-01T22:03:58;94453.81;;;5.26;100.00
62634;BME280;48704;50.534;6.442;2023-04-01T22:06:29;94459.16;;;5.30;100.00
62634;BME280;48704;50.534;6.442;2023-04-01T22:09:11;94460.84;;;5.27;100.00
62634;BME280;48704;50.534;6.442;2023-04-01T22:11:57;94466.38;;;5.27;100.00
62634;BME280;48704;50.534;6.442;2023-04-01T22:14:38;94466.69;;;5.29;100.00
62634;BME280;48704;50.534;6.442;2023-04-01T22:17:25;94469.44;;;5.29;100.00
62634;BME280;48704;50.534;6.442;2023-04-01T22:25:20;94470.50;;;5.32;100.00
62634;BME280;48704;50.534;6.442;2023-04-01T22:28:09;94469.44;;;5.29;100.00
62634;BME280;48704;50.534;6.442;2023-04-01T22:30:50;94477.44;;;5.27;100.00
62634;BME280;48704;50.534;6.442;2023-04-01T22:50:45;94498.59;;;5.30;100.00
62634;BME280;48704;50.534;6.442;2023-04-01T22:53:17;94488.47;;;5.27;100.00
62634;BME280;48704;50.534;6.442;2023-04-01T22:55:49;94498.41;;;5.34;100.00
62634;BME280;48704;50.534;6.442;2023-04-01T22:58:30;94496.41;;;5.34;100.00